createdAt,value
2023-02-03T00:03:29.921Z,16.85
2023-02-03T00:08:31.657Z,15.25
2023-02-03T00:13:33.885Z,14.18
2023-02-03T00:18:35.314Z,12.95
2023-02-03T00:23:36.711Z,12.38
2023-02-03T00:28:38.173Z,15.05
2023-02-03T00:33:39.677Z,12.60
2023-02-03T00:38:41.134Z,14.27
2023-02-03T00:43:42.721Z,18.65
2023-02-03T00:48:44.160Z,12.07
2023-02-03T00:53:45.549Z,15.52
2023-02-03T00:58:47.122Z,18.10
2023-02-03T01:03:48.593Z,19.75
2023-02-03T01:08:50.484Z,14.13
2023-02-03T01:13:51.963Z,11.15
2023-02-03T01:18:53.441Z,9.85
2023-02-03T01:23:55.189Z,13.10
2023-02-03T01:28:57.793Z,13.57
2023-02-03T01:33:59.809Z,15.23
2023-02-03T01:39:01.863Z,14.02
2023-02-03T01:44:23.209Z,13.77
2023-02-03T01:49:24.535Z,9.15
2023-02-03T01:54:27.550Z,11.43
2023-02-03T01:59:29.888Z,15.73
2023-02-03T02:04:49.895Z,14.70
2023-02-03T02:09:51.461Z,14.68
2023-02-03T02:14:52.972Z,15.95
2023-02-03T02:20:09.577Z,13.20
2023-02-03T02:25:33.979Z,13.82
2023-02-03T02:30:54.072Z,17.75
2023-02-03T02:40:56.777Z,11.05
2023-02-03T02:46:09.050Z,16.70
2023-02-03T02:51:12.699Z,12.45
2023-02-03T02:56:15.739Z,14.13
2023-02-03T03:01:17.964Z,16.35
2023-02-03T03:06:25.075Z,13.13
2023-02-03T03:11:29.018Z,13.82
2023-02-03T03:16:33.377Z,15.43
2023-02-03T03:21:37.992Z,19.02
2023-02-03T03:26:39.361Z,18.83
2023-02-03T03:31:41.335Z,19.05
2023-02-03T03:36:42.765Z,9.25
2023-02-03T03:42:02.744Z,13.23
2023-02-03T03:47:10.902Z,11.63
2023-02-03T03:52:14.042Z,15.05
2023-02-03T03:57:21.245Z,15.15
2023-02-03T04:02:22.781Z,12.40
2023-02-03T04:07:24.262Z,15.65
2023-02-03T04:12:25.741Z,17.38
2023-02-03T04:17:27.210Z,17.52
2023-02-03T04:22:28.649Z,25.33
2023-02-03T04:27:30.045Z,13.98
2023-02-03T04:32:31.604Z,15.32
2023-02-03T04:37:33.399Z,13.07
2023-02-03T04:42:36.502Z,20.20
2023-02-03T04:47:38.326Z,16.70
2023-02-03T04:52:39.765Z,17.73
2023-02-03T04:57:41.223Z,11.85
2023-02-03T05:02:42.612Z,14.38
2023-02-03T05:07:44.012Z,15.98
2023-02-03T05:12:45.438Z,15.70
2023-02-03T05:17:46.881Z,14.63
2023-02-03T05:28:13.604Z,16.20
2023-02-03T05:33:15.080Z,17.02
2023-02-03T05:38:16.926Z,12.70
2023-02-03T05:43:18.348Z,14.35
2023-02-03T05:48:19.751Z,14.40
2023-02-03T05:53:21.149Z,14.15
2023-02-03T05:58:22.556Z,16.55
2023-02-03T06:03:24.191Z,12.38
2023-02-03T06:08:28.689Z,19.30
2023-02-03T06:13:30.167Z,14.35
2023-02-03T06:18:31.591Z,22.20
2023-02-03T06:23:33.204Z,15.10
2023-02-03T06:28:34.663Z,15.88
2023-02-03T06:33:36.103Z,18.90
2023-02-03T06:38:37.574Z,15.38
2023-02-03T06:43:38.977Z,13.00
2023-02-03T06:48:40.391Z,12.00
2023-02-03T06:53:41.768Z,18.80
2023-02-03T06:58:44.575Z,15.32
2023-02-03T07:03:47.003Z,9.50
2023-02-03T07:09:07.082Z,16.52
2023-02-03T07:14:08.485Z,14.63
2023-02-03T07:19:09.902Z,12.98
2023-02-03T07:24:11.357Z,15.00
2023-02-03T07:29:12.778Z,10.98
2023-02-03T07:34:14.207Z,14.82
2023-02-03T07:39:15.629Z,15.85
2023-02-03T07:44:17.009Z,16.17
2023-02-03T07:49:18.399Z,17.00
2023-02-03T07:54:19.882Z,14.35
2023-02-03T07:59:21.394Z,19.85
2023-02-03T08:04:24.399Z,16.77
2023-02-03T08:09:25.908Z,16.05
2023-02-03T08:14:27.405Z,17.60
2023-02-03T08:19:29.241Z,16.88
2023-02-03T08:24:30.679Z,14.35
2023-02-03T08:29:32.150Z,18.63
2023-02-03T08:34:34.210Z,16.15
2023-02-03T08:39:35.794Z,12.63
2023-02-03T08:44:39.055Z,21.50
2023-02-03T08:49:41.748Z,16.15
2023-02-03T08:54:43.497Z,15.73
2023-02-03T08:59:45.049Z,13.15
2023-02-03T09:04:47.491Z,18.30
2023-02-03T09:09:48.963Z,16.05
2023-02-03T09:14:50.931Z,19.73
2023-02-03T09:19:52.385Z,17.45
2023-02-03T09:24:53.924Z,17.48
2023-02-03T09:29:55.450Z,17.63
2023-02-03T09:34:56.852Z,24.45
2023-02-03T09:39:59.094Z,14.30
2023-02-03T09:45:14.833Z,17.60
2023-02-03T09:50:20.873Z,17.73
2023-02-03T09:55:42.837Z,18.60
2023-02-03T10:00:51.291Z,18.10
2023-02-03T10:06:01.723Z,15.60
2023-02-03T10:11:18.589Z,19.27
2023-02-03T10:16:38.103Z,19.33
2023-02-03T10:21:42.685Z,15.85
2023-02-03T10:26:44.132Z,17.38
2023-02-03T10:31:47.642Z,23.05
2023-02-03T10:36:56.233Z,20.52
2023-02-03T10:41:57.842Z,22.98
2023-02-03T10:46:59.269Z,21.70
2023-02-03T10:52:03.413Z,20.52
2023-02-03T10:57:05.978Z,21.13
2023-02-03T11:02:11.211Z,14.05
2023-02-03T11:07:24.195Z,17.80
2023-02-03T11:12:26.435Z,17.88
2023-02-03T11:17:30.080Z,14.93
2023-02-03T11:22:35.658Z,17.60
2023-02-03T11:27:37.409Z,21.63
2023-02-03T11:32:43.761Z,21.88
2023-02-03T11:37:49.866Z,16.67
2023-02-03T11:42:51.265Z,18.90
2023-02-03T11:47:55.679Z,24.45
2023-02-03T11:53:12.149Z,31.70
2023-02-03T11:58:32.031Z,15.88
2023-02-03T12:03:44.353Z,24.27
2023-02-03T12:08:48.558Z,21.15
2023-02-03T12:13:53.043Z,24.85
2023-02-03T12:19:13.139Z,24.10
2023-02-03T12:24:28.428Z,26.23
2023-02-03T12:29:32.632Z,31.88
2023-02-03T12:34:38.286Z,28.15
2023-02-03T12:39:48.266Z,26.30
2023-02-03T12:44:57.287Z,23.85
2023-02-03T12:50:05.448Z,28.50
2023-02-03T12:55:25.927Z,23.52
2023-02-03T13:00:44.397Z,26.02
2023-02-03T13:06:09.357Z,28.55
2023-02-03T13:11:10.802Z,28.92
2023-02-03T13:16:14.285Z,29.92
2023-02-03T13:21:16.080Z,30.35
2023-02-03T13:26:42.758Z,23.77
2023-02-03T13:31:50.227Z,35.03
2023-02-03T13:37:06.429Z,27.92
2023-02-03T13:42:12.938Z,33.25
2023-02-03T13:47:16.634Z,37.97
2023-02-03T13:52:25.720Z,30.67
2023-02-03T13:57:34.469Z,36.67
2023-02-03T14:02:52.073Z,36.78
2023-02-03T14:07:53.494Z,34.92
2023-02-03T14:12:56.965Z,29.52
2023-02-03T14:18:02.462Z,30.63
2023-02-03T14:23:06.648Z,36.30
2023-02-03T14:28:10.487Z,29.80
2023-02-03T14:33:11.984Z,33.83
2023-02-03T14:38:14.407Z,31.65
2023-02-03T14:43:34.820Z,30.88
2023-02-03T14:48:55.431Z,27.58
2023-02-03T14:54:08.753Z,34.05
2023-02-03T14:59:10.575Z,33.10
2023-02-03T15:04:12.002Z,26.83
2023-02-03T15:09:34.872Z,29.52
2023-02-03T15:14:36.412Z,29.08
2023-02-03T15:19:42.066Z,37.30
2023-02-03T15:24:43.714Z,32.28
2023-02-03T15:29:45.337Z,39.33
2023-02-03T15:34:50.291Z,42.50
2023-02-03T15:40:00.358Z,34.63
2023-02-03T15:45:04.874Z,35.55
2023-02-03T15:50:08.530Z,27.38
2023-02-03T15:55:23.027Z,37.15
2023-02-03T16:00:38.252Z,32.85
2023-02-03T16:05:39.785Z,30.05
2023-02-03T16:10:42.059Z,38.60
2023-02-03T16:15:43.500Z,37.22
2023-02-03T16:20:49.801Z,44.80
2023-02-03T16:26:23.503Z,45.03
2023-02-03T16:31:43.400Z,38.45
2023-02-03T16:37:03.337Z,32.63
2023-02-03T16:42:31.932Z,40.50
2023-02-03T16:47:52.012Z,36.47
2023-02-03T16:52:53.452Z,29.60
2023-02-03T16:57:54.951Z,31.20
2023-02-03T17:02:58.579Z,28.50
2023-02-03T17:08:00.346Z,30.77
2023-02-03T17:13:01.813Z,43.17
2023-02-03T17:18:03.259Z,24.05
2023-02-03T17:23:04.812Z,35.97
2023-02-03T17:28:07.697Z,36.75
2023-02-03T17:33:12.924Z,39.38
2023-02-03T17:38:15.043Z,39.50
2023-02-03T17:53:56.629Z,37.33
2023-02-03T17:58:59.422Z,29.73
2023-02-03T18:04:02.688Z,42.35
2023-02-03T18:09:05.220Z,32.38
2023-02-03T18:14:06.674Z,33.08
2023-02-03T18:19:08.941Z,32.38
2023-02-03T18:24:11.699Z,41.13
2023-02-03T18:29:13.412Z,29.02
2023-02-03T18:34:15.253Z,34.72
2023-02-03T18:39:17.965Z,34.70
2023-02-03T18:44:19.552Z,31.60
2023-02-03T18:49:21.081Z,36.72
2023-02-03T18:54:22.519Z,37.50
2023-02-03T18:59:23.959Z,32.17
2023-02-03T19:04:25.377Z,25.60
2023-02-03T19:09:26.780Z,38.28
2023-02-03T19:14:28.509Z,24.77
2023-02-03T19:19:29.932Z,36.70
2023-02-03T19:24:31.355Z,31.05
2023-02-03T19:29:32.744Z,27.40
2023-02-03T19:34:34.191Z,28.60
2023-02-03T19:39:35.801Z,24.40
2023-02-03T19:44:37.241Z,29.50
2023-02-03T19:49:38.806Z,25.17
2023-02-03T19:54:40.259Z,32.45
2023-02-03T19:59:41.957Z,34.47
2023-02-03T20:04:44.265Z,29.45
2023-02-03T20:09:46.194Z,37.67
2023-02-03T20:14:47.620Z,37.28
2023-02-03T20:19:49.104Z,30.95
2023-02-03T20:24:50.525Z,31.38
2023-02-03T20:29:51.918Z,29.90
2023-02-03T20:34:53.320Z,32.80
2023-02-03T20:39:54.950Z,33.25
2023-02-03T20:44:56.460Z,23.80
2023-02-03T20:49:57.858Z,36.90
2023-02-03T20:54:59.267Z,38.63
2023-02-03T21:00:00.698Z,33.95
2023-02-03T21:05:24.929Z,29.60
2023-02-03T21:10:26.358Z,29.17
2023-02-03T21:15:29.101Z,31.75
2023-02-03T21:20:31.870Z,32.20
2023-02-03T21:25:33.684Z,25.52
2023-02-03T21:30:35.336Z,25.00
2023-02-03T21:35:37.516Z,27.10
2023-02-03T21:40:38.955Z,37.33
2023-02-03T21:45:44.058Z,31.48
2023-02-03T21:50:45.717Z,32.40
2023-02-03T21:55:47.133Z,26.65
2023-02-03T22:00:49.244Z,26.45
2023-02-03T22:05:51.021Z,29.02
2023-02-03T22:10:52.451Z,27.45
2023-02-03T22:15:53.993Z,19.70
2023-02-03T22:20:55.452Z,22.83
2023-02-03T22:25:56.966Z,33.28
2023-02-03T22:30:58.426Z,29.45
2023-02-03T22:35:59.921Z,22.17
2023-02-03T22:41:01.798Z,26.42
2023-02-03T22:46:04.816Z,32.78
2023-02-03T22:51:06.402Z,30.13
2023-02-03T22:56:08.049Z,21.10
2023-02-03T23:01:09.441Z,32.33
2023-02-03T23:06:11.550Z,27.88
2023-02-03T23:11:12.988Z,27.58
2023-02-03T23:16:14.952Z,24.05
2023-02-03T23:21:16.442Z,27.67
2023-02-03T23:26:18.114Z,25.63
2023-02-03T23:31:19.623Z,27.63
2023-02-03T23:36:21.030Z,27.63
2023-02-03T23:41:22.458Z,30.02
2023-02-03T23:46:23.913Z,28.52
2023-02-03T23:51:25.369Z,22.40
2023-02-03T23:56:26.808Z,29.48
